createdAt,value
2022-11-16T00:01:54.687Z,44.25
2022-11-16T00:04:22.148Z,43.40
2022-11-16T00:06:50.005Z,43.10
2022-11-16T00:09:17.378Z,40.33
2022-11-16T00:11:45.135Z,39.55
2022-11-16T00:14:38.490Z,37.15
2022-11-16T00:17:06.133Z,36.90
2022-11-16T00:19:33.524Z,35.65
2022-11-16T00:22:01.222Z,35.85
2022-11-16T00:24:28.630Z,36.42
2022-11-16T00:26:56.301Z,37.42
2022-11-16T00:29:24.617Z,39.60
2022-11-16T00:31:52.594Z,40.35
2022-11-16T00:34:20.283Z,41.40
2022-11-16T00:36:48.259Z,42.42
2022-11-16T00:39:16.531Z,42.10
2022-11-16T00:41:44.577Z,42.03
2022-11-16T00:44:12.245Z,40.75
2022-11-16T00:46:40.290Z,40.42
2022-11-16T00:49:07.819Z,37.05
2022-11-16T00:51:35.911Z,39.85
2022-11-16T00:54:03.810Z,39.60
2022-11-16T00:56:31.517Z,40.38
2022-11-16T00:58:58.935Z,42.03
2022-11-16T01:01:26.783Z,40.45
2022-11-16T01:03:54.259Z,40.17
2022-11-16T01:06:22.028Z,38.88
2022-11-16T01:08:49.704Z,40.60
2022-11-16T01:11:18.134Z,38.92
2022-11-16T01:13:45.483Z,40.65
2022-11-16T01:16:14.202Z,38.30
2022-11-16T01:18:41.670Z,36.95
2022-11-16T01:21:09.648Z,40.58
2022-11-16T01:23:37.025Z,38.38
2022-11-16T01:26:04.906Z,39.17
2022-11-16T01:28:32.783Z,38.45
2022-11-16T01:31:00.703Z,39.03
2022-11-16T01:33:40.289Z,39.00
2022-11-16T01:36:13.223Z,40.45
2022-11-16T01:38:44.467Z,37.88
2022-11-16T01:41:13.569Z,36.63
2022-11-16T01:44:01.574Z,39.50
2022-11-16T01:46:29.777Z,39.70
2022-11-16T01:49:26.571Z,37.13
2022-11-16T01:51:57.167Z,36.92
2022-11-16T01:54:24.771Z,37.75
2022-11-16T01:56:52.929Z,38.55
2022-11-16T01:59:20.351Z,37.13
2022-11-16T02:01:48.025Z,40.35
2022-11-16T02:04:15.471Z,36.22
2022-11-16T02:10:24.825Z,37.97
2022-11-16T02:12:52.497Z,37.50
2022-11-16T02:15:29.465Z,37.60
2022-11-16T02:18:02.864Z,36.55
2022-11-16T02:20:48.929Z,35.65
2022-11-16T02:23:16.618Z,37.95
2022-11-16T02:25:43.967Z,34.55
2022-11-16T02:28:33.592Z,36.03
2022-11-16T02:31:03.826Z,35.08
2022-11-16T02:33:35.233Z,34.33
2022-11-16T02:36:04.729Z,34.30
2022-11-16T02:42:05.922Z,33.83
2022-11-16T02:44:35.259Z,34.85
2022-11-16T02:47:05.100Z,35.28
2022-11-16T02:49:38.207Z,35.38
2022-11-16T02:52:05.670Z,32.65
2022-11-16T02:54:33.352Z,31.40
2022-11-16T02:57:03.449Z,34.10
2022-11-16T02:59:33.559Z,32.90
2022-11-16T03:02:21.218Z,32.35
2022-11-16T03:04:50.544Z,33.65
2022-11-16T03:07:20.329Z,31.80
2022-11-16T03:09:48.928Z,31.45
2022-11-16T03:12:18.520Z,32.67
2022-11-16T03:14:49.252Z,32.85
2022-11-16T03:17:25.538Z,35.13
2022-11-16T03:20:11.837Z,35.10
2022-11-16T03:22:41.963Z,34.00
2022-11-16T03:25:11.354Z,33.58
2022-11-16T03:27:38.681Z,32.28
2022-11-16T03:30:06.350Z,34.50
2022-11-16T03:32:36.677Z,35.40
2022-11-16T03:35:08.180Z,34.88
2022-11-16T03:37:36.132Z,36.08
2022-11-16T03:40:04.637Z,34.47
2022-11-16T03:46:04.538Z,31.73
2022-11-16T03:48:34.371Z,33.72
2022-11-16T03:51:02.088Z,32.17
2022-11-16T03:53:29.807Z,28.38
2022-11-16T03:55:57.154Z,32.00
2022-11-16T03:58:24.806Z,30.92
2022-11-16T04:00:52.926Z,29.77
2022-11-16T04:03:21.185Z,30.02
2022-11-16T04:05:49.101Z,31.58
2022-11-16T04:08:17.517Z,29.77
2022-11-16T04:10:45.183Z,28.95
2022-11-16T04:13:13.828Z,27.15
2022-11-16T04:15:41.217Z,29.98
2022-11-16T04:18:10.477Z,30.25
2022-11-16T04:20:37.877Z,30.08
2022-11-16T04:23:10.720Z,29.02
2022-11-16T04:25:39.816Z,28.38
2022-11-16T04:28:07.719Z,25.98
2022-11-16T04:30:35.129Z,25.70
2022-11-16T04:33:02.800Z,21.05
2022-11-16T04:35:30.201Z,25.35
2022-11-16T04:37:59.194Z,23.70
2022-11-16T04:40:27.845Z,22.38
2022-11-16T04:42:56.930Z,24.88
2022-11-16T04:45:24.831Z,22.30
2022-11-16T04:47:52.925Z,24.00
2022-11-16T04:50:20.489Z,23.65
2022-11-16T04:52:48.185Z,21.55
2022-11-16T04:55:15.547Z,23.70
2022-11-16T04:57:43.200Z,22.70
2022-11-16T05:00:10.873Z,23.75
2022-11-16T05:02:38.584Z,24.10
2022-11-16T05:05:06.343Z,23.05
2022-11-16T05:07:34.028Z,23.60
2022-11-16T05:10:04.602Z,22.55
2022-11-16T05:12:32.689Z,22.55
2022-11-16T05:15:00.134Z,24.08
2022-11-16T05:20:59.867Z,24.13
2022-11-16T05:23:27.535Z,24.58
2022-11-16T05:25:54.877Z,23.40
2022-11-16T05:28:22.566Z,22.90
2022-11-16T05:30:50.004Z,23.85
2022-11-16T05:33:17.674Z,25.02
2022-11-16T05:35:45.060Z,22.52
2022-11-16T05:38:12.804Z,22.65
2022-11-16T05:40:40.240Z,24.17
2022-11-16T05:43:07.902Z,24.80
2022-11-16T05:45:35.315Z,23.05
2022-11-16T05:48:03.033Z,21.65
2022-11-16T05:50:30.415Z,22.38
2022-11-16T05:52:58.139Z,22.30
2022-11-16T05:55:25.534Z,19.85
2022-11-16T05:57:53.160Z,20.73
2022-11-16T06:00:20.605Z,20.67
2022-11-16T06:02:48.445Z,19.60
2022-11-16T06:05:15.874Z,21.80
2022-11-16T06:07:43.631Z,18.15
2022-11-16T06:10:11.030Z,20.35
2022-11-16T06:12:38.739Z,17.95
2022-11-16T06:15:06.321Z,18.45
2022-11-16T06:17:33.995Z,18.45
2022-11-16T06:20:01.443Z,18.02
2022-11-16T06:22:29.186Z,18.48
2022-11-16T06:24:56.571Z,17.85
2022-11-16T06:27:24.299Z,17.60
2022-11-16T06:29:51.647Z,18.85
2022-11-16T06:32:19.937Z,17.65
2022-11-16T06:38:09.813Z,18.27
2022-11-16T06:40:37.700Z,18.70
2022-11-16T06:43:05.086Z,18.15
2022-11-16T06:45:32.723Z,18.33
2022-11-16T06:48:00.098Z,17.55
2022-11-16T06:50:27.731Z,16.27
2022-11-16T06:52:55.134Z,20.65
2022-11-16T06:55:22.818Z,17.17
2022-11-16T06:57:50.136Z,17.58
2022-11-16T07:00:19.531Z,18.70
2022-11-16T07:06:04.909Z,18.10
2022-11-16T07:08:32.691Z,29.77
2022-11-16T07:11:05.359Z,19.95
2022-11-16T07:13:33.424Z,17.25
2022-11-16T07:16:04.978Z,17.90
2022-11-16T07:18:36.176Z,17.23
2022-11-16T07:21:06.967Z,18.33
2022-11-16T07:23:34.671Z,18.13
2022-11-16T07:26:03.513Z,16.27
2022-11-16T07:28:31.137Z,17.45
2022-11-16T07:34:23.023Z,18.27
2022-11-16T07:36:50.684Z,18.23
2022-11-16T07:39:18.080Z,18.00
2022-11-16T07:45:00.592Z,14.52
2022-11-16T07:47:28.323Z,18.52
2022-11-16T07:49:55.783Z,15.90
2022-11-16T07:52:23.462Z,17.17
2022-11-16T07:54:50.858Z,17.45
2022-11-16T07:57:18.515Z,15.75
2022-11-16T07:59:45.957Z,18.45
2022-11-16T08:02:13.698Z,16.25
2022-11-16T08:04:41.143Z,17.50
2022-11-16T08:07:09.007Z,16.27
2022-11-16T08:09:36.544Z,18.13
2022-11-16T08:12:04.394Z,16.20
2022-11-16T08:14:31.752Z,16.75
2022-11-16T08:16:59.506Z,18.00
2022-11-16T08:19:26.995Z,16.35
2022-11-16T08:21:54.737Z,15.75
2022-11-16T08:24:22.098Z,16.38
2022-11-16T08:26:49.811Z,17.20
2022-11-16T08:29:17.365Z,16.65
2022-11-16T08:31:45.036Z,16.70
2022-11-16T08:34:12.434Z,18.35
2022-11-16T08:36:40.092Z,17.73
2022-11-16T08:39:07.549Z,18.77
2022-11-16T08:41:35.280Z,18.65
2022-11-16T08:44:02.683Z,16.60
2022-11-16T08:46:30.408Z,16.45
2022-11-16T08:48:57.993Z,16.25
2022-11-16T08:51:25.931Z,18.30
2022-11-16T08:53:56.909Z,16.75
2022-11-16T08:56:24.828Z,14.82
2022-11-16T08:58:58.169Z,15.73
2022-11-16T09:01:28.114Z,17.23
2022-11-16T09:03:55.719Z,15.13
2022-11-16T09:06:24.409Z,15.02
2022-11-16T09:08:52.198Z,13.63
2022-11-16T09:11:20.992Z,15.20
2022-11-16T09:13:49.121Z,15.60
2022-11-16T09:16:17.452Z,15.15
2022-11-16T09:18:44.864Z,15.48
2022-11-16T09:21:16.111Z,15.85
2022-11-16T09:23:43.501Z,14.45
2022-11-16T09:26:11.228Z,14.25
2022-11-16T09:28:38.881Z,16.85
2022-11-16T09:31:06.558Z,14.85
2022-11-16T09:33:34.321Z,16.17
2022-11-16T09:36:03.307Z,16.40
2022-11-16T09:38:54.283Z,16.35
2022-11-16T09:41:24.990Z,17.10
2022-11-16T09:44:04.600Z,18.25
2022-11-16T09:46:35.169Z,15.82
2022-11-16T09:49:03.374Z,12.20
2022-11-16T09:51:33.213Z,14.90
2022-11-16T09:54:05.181Z,13.00
2022-11-16T09:59:03.479Z,14.43
2022-11-16T10:01:31.321Z,14.95
2022-11-16T10:04:18.998Z,12.93
2022-11-16T10:06:53.218Z,13.82
2022-11-16T10:09:20.695Z,13.95
2022-11-16T10:11:48.522Z,14.10
2022-11-16T10:14:42.106Z,13.55
2022-11-16T10:17:15.584Z,12.40
2022-11-16T10:19:56.917Z,13.00
2022-11-16T10:22:43.473Z,13.37
2022-11-16T10:25:23.883Z,11.23
2022-11-16T10:28:09.722Z,12.95
2022-11-16T10:30:41.444Z,14.48
2022-11-16T10:33:14.558Z,13.02
2022-11-16T10:35:48.088Z,13.50
2022-11-16T10:38:17.283Z,13.82
2022-11-16T10:40:51.074Z,13.93
2022-11-16T10:43:20.779Z,12.75
2022-11-16T10:45:59.710Z,16.02
2022-11-16T10:48:53.390Z,13.23
2022-11-16T10:51:20.836Z,14.70
2022-11-16T10:53:48.606Z,13.82
2022-11-16T10:56:16.028Z,19.45
2022-11-16T10:58:55.672Z,17.60
2022-11-16T11:01:31.191Z,14.00
2022-11-16T11:04:17.675Z,13.23
2022-11-16T11:06:46.171Z,13.80
2022-11-16T11:09:25.287Z,15.52
2022-11-16T11:11:59.111Z,14.20
2022-11-16T11:17:50.526Z,13.60
2022-11-16T11:23:23.926Z,14.52
2022-11-16T11:25:55.826Z,14.30
2022-11-16T11:28:27.782Z,16.58
2022-11-16T11:30:55.537Z,14.95
2022-11-16T11:33:24.402Z,14.70
2022-11-16T11:36:11.240Z,15.30
2022-11-16T11:38:55.175Z,13.77
2022-11-16T11:41:23.899Z,12.73
2022-11-16T11:44:04.896Z,13.05
2022-11-16T11:47:28.629Z,14.40
2022-11-16T11:49:33.304Z,13.07
2022-11-16T11:52:05.121Z,12.43
2022-11-16T11:54:34.782Z,13.98
2022-11-16T11:57:03.214Z,12.35
2022-11-16T11:59:30.625Z,13.55
2022-11-16T12:01:58.306Z,12.73
2022-11-16T12:08:09.822Z,13.95
2022-11-16T12:10:43.874Z,13.52
2022-11-16T12:13:23.172Z,13.35
2022-11-16T12:16:09.467Z,14.30
2022-11-16T12:18:56.381Z,12.10
2022-11-16T12:21:33.160Z,12.73
2022-11-16T12:24:18.756Z,12.75
2022-11-16T12:27:09.386Z,11.93
2022-11-16T12:29:45.997Z,11.10
2022-11-16T12:32:22.570Z,11.27
2022-11-16T12:35:08.048Z,11.63
2022-11-16T12:37:41.363Z,12.23
2022-11-16T12:40:17.920Z,11.10
2022-11-16T12:42:49.646Z,11.43
2022-11-16T12:45:17.180Z,13.95
2022-11-16T12:47:56.330Z,11.27
2022-11-16T12:50:27.143Z,10.75
2022-11-16T12:52:54.880Z,11.25
2022-11-16T12:55:48.563Z,12.25
2022-11-16T12:58:36.745Z,11.50
2022-11-16T13:01:06.960Z,11.25
2022-11-16T13:03:37.824Z,11.68
2022-11-16T13:06:08.377Z,11.13
2022-11-16T13:08:36.184Z,10.95
2022-11-16T13:11:14.050Z,11.45
2022-11-16T13:13:45.724Z,12.15
2022-11-16T13:16:15.862Z,12.60
2022-11-16T13:18:44.122Z,11.68
2022-11-16T13:21:18.426Z,11.50
2022-11-16T13:23:54.996Z,12.13
2022-11-16T13:26:40.776Z,13.00
2022-11-16T13:29:14.317Z,12.00
2022-11-16T13:31:48.183Z,12.85
2022-11-16T13:34:20.469Z,13.00
2022-11-16T13:36:47.951Z,12.63
2022-11-16T13:39:21.860Z,13.30
2022-11-16T13:41:51.523Z,13.55
2022-11-16T13:44:19.239Z,13.55
2022-11-16T13:46:55.921Z,14.60
2022-11-16T13:49:29.420Z,14.73
2022-11-16T13:52:21.336Z,14.40
2022-11-16T13:54:50.340Z,13.38
2022-11-16T13:57:20.857Z,13.57
2022-11-16T13:59:49.335Z,12.35
2022-11-16T14:02:33.503Z,13.10
2022-11-16T14:05:03.478Z,13.15
2022-11-16T14:07:32.710Z,14.23
2022-11-16T14:10:00.976Z,12.68
2022-11-16T14:12:46.831Z,13.13
2022-11-16T14:15:21.704Z,12.75
2022-11-16T14:17:49.981Z,11.32
2022-11-16T14:20:46.819Z,12.70
2022-11-16T14:23:14.179Z,13.13
2022-11-16T14:26:00.249Z,12.23
2022-11-16T14:28:43.044Z,12.10
2022-11-16T14:31:29.249Z,12.38
2022-11-16T14:33:58.663Z,11.43
2022-11-16T14:36:46.191Z,10.63
2022-11-16T14:39:35.483Z,12.25
2022-11-16T14:42:14.882Z,11.63
2022-11-16T14:44:42.358Z,12.07
2022-11-16T14:47:39.233Z,11.18
2022-11-16T14:50:17.339Z,10.30
2022-11-16T14:52:46.304Z,10.25
2022-11-16T14:55:21.272Z,9.13
2022-11-16T14:57:49.125Z,10.70
2022-11-16T15:00:19.566Z,10.88
2022-11-16T15:02:51.743Z,12.02
2022-11-16T15:05:21.033Z,13.05
2022-11-16T15:07:50.801Z,13.10
2022-11-16T15:10:23.110Z,14.45
2022-11-16T15:12:51.567Z,10.88
2022-11-16T15:15:21.618Z,12.63
2022-11-16T15:18:11.423Z,12.50
2022-11-16T15:20:46.908Z,10.75
2022-11-16T15:23:15.287Z,10.60
2022-11-16T15:25:44.121Z,9.65
2022-11-16T15:28:22.012Z,8.35
2022-11-16T15:30:53.466Z,8.50
2022-11-16T15:33:26.947Z,8.35
2022-11-16T15:35:54.888Z,7.38
2022-11-16T15:38:30.480Z,7.15
2022-11-16T15:40:59.267Z,6.32
2022-11-16T15:43:31.494Z,7.22
2022-11-16T15:45:59.898Z,7.20
2022-11-16T15:48:28.573Z,7.45
2022-11-16T15:51:06.815Z,7.18
2022-11-16T15:53:37.454Z,5.80
2022-11-16T15:58:54.999Z,5.68
2022-11-16T16:01:22.918Z,6.00
2022-11-16T16:04:02.557Z,6.78
2022-11-16T16:06:43.335Z,5.70
2022-11-16T16:09:14.796Z,6.82
2022-11-16T16:11:42.191Z,6.82
2022-11-16T16:14:09.916Z,6.28
2022-11-16T16:16:37.927Z,7.22
2022-11-16T16:19:24.080Z,7.72
2022-11-16T16:21:53.515Z,7.43
2022-11-16T16:27:39.140Z,9.50
2022-11-16T16:30:07.386Z,8.82
2022-11-16T16:32:36.350Z,9.20
2022-11-16T16:35:06.405Z,9.85
2022-11-16T16:37:34.431Z,9.02
2022-11-16T16:40:02.307Z,8.85
2022-11-16T16:42:29.706Z,8.48
2022-11-16T16:44:58.810Z,7.72
2022-11-16T16:47:26.166Z,8.20
2022-11-16T16:49:53.981Z,7.63
2022-11-16T16:55:37.940Z,7.95
2022-11-16T16:58:05.718Z,7.53
2022-11-16T17:00:33.606Z,7.07
2022-11-16T17:03:01.246Z,6.45
2022-11-16T17:05:29.724Z,7.93
2022-11-16T17:07:57.186Z,7.68
2022-11-16T17:10:24.986Z,7.38
2022-11-16T17:12:55.578Z,6.53
2022-11-16T17:15:23.604Z,6.75
2022-11-16T17:17:51.002Z,7.22
2022-11-16T17:20:18.779Z,7.82
2022-11-16T17:22:46.249Z,8.45
2022-11-16T17:25:13.896Z,8.27
2022-11-16T17:27:41.289Z,7.00
2022-11-16T17:30:09.381Z,5.50
2022-11-16T17:32:36.766Z,8.65
2022-11-16T17:35:04.599Z,8.68
2022-11-16T17:37:31.946Z,8.23
2022-11-16T17:39:59.592Z,6.57
2022-11-16T17:42:27.026Z,7.75
2022-11-16T17:44:54.676Z,6.30
2022-11-16T17:47:22.086Z,7.28
2022-11-16T17:49:49.801Z,5.55
2022-11-16T17:52:17.213Z,5.97
2022-11-16T17:54:44.962Z,5.70
2022-11-16T17:57:12.328Z,5.78
2022-11-16T17:59:39.963Z,4.40
2022-11-16T18:05:26.468Z,5.18
2022-11-16T18:07:53.909Z,9.10
2022-11-16T18:10:21.597Z,4.80
2022-11-16T18:12:48.980Z,4.85
2022-11-16T18:15:31.847Z,4.90
2022-11-16T18:17:59.219Z,5.30
2022-11-16T18:20:26.895Z,5.60
2022-11-16T18:22:54.393Z,5.03
2022-11-16T18:25:22.817Z,5.43
2022-11-16T18:27:52.826Z,6.68
2022-11-16T18:30:21.267Z,6.55
2022-11-16T18:32:49.391Z,6.32
2022-11-16T18:38:31.039Z,6.15
2022-11-16T18:41:14.772Z,5.50
2022-11-16T18:43:47.248Z,5.57
2022-11-16T18:46:14.974Z,5.40
2022-11-16T18:48:42.395Z,5.50
2022-11-16T18:51:10.449Z,5.68
2022-11-16T18:53:38.240Z,5.45
2022-11-16T18:56:06.346Z,5.70
2022-11-16T18:58:50.939Z,4.50
2022-11-16T19:01:21.080Z,5.55
2022-11-16T19:03:50.670Z,5.90
2022-11-16T19:06:18.749Z,5.40
2022-11-16T19:08:52.115Z,6.47
2022-11-16T19:14:26.890Z,5.35
2022-11-16T19:20:20.273Z,5.80
2022-11-16T19:22:48.011Z,5.80
2022-11-16T19:25:15.406Z,5.88
2022-11-16T19:27:43.140Z,5.68
2022-11-16T19:30:10.892Z,5.10
2022-11-16T19:32:38.585Z,5.97
2022-11-16T19:35:08.730Z,5.78
2022-11-16T19:37:40.127Z,6.30
2022-11-16T19:40:07.930Z,6.03
2022-11-16T19:42:35.655Z,5.55
2022-11-16T19:45:03.047Z,6.15
2022-11-16T19:47:30.665Z,5.63
2022-11-16T19:49:58.055Z,5.95
2022-11-16T19:52:25.798Z,6.03
2022-11-16T19:54:53.193Z,5.88
2022-11-16T19:57:20.900Z,6.70
2022-11-16T19:59:48.322Z,6.80
2022-11-16T20:02:16.028Z,5.57
2022-11-16T20:04:43.488Z,7.80
2022-11-16T20:07:11.247Z,7.53
2022-11-16T20:09:38.642Z,7.28
2022-11-16T20:12:06.377Z,7.85
2022-11-16T20:14:33.947Z,7.95
2022-11-16T20:17:01.908Z,7.47
2022-11-16T20:19:29.401Z,8.27
2022-11-16T20:21:57.158Z,8.25
2022-11-16T20:24:24.630Z,7.85
2022-11-16T20:27:10.507Z,8.20
2022-11-16T20:29:37.913Z,7.15
2022-11-16T20:32:05.702Z,7.93
2022-11-16T20:34:46.580Z,8.27
2022-11-16T20:40:19.266Z,7.95
2022-11-16T20:43:03.639Z,7.22
2022-11-16T20:45:46.108Z,7.15
2022-11-16T20:48:20.258Z,5.65
2022-11-16T20:50:51.145Z,7.18
2022-11-16T20:53:18.845Z,7.25
2022-11-16T20:59:18.333Z,6.75
2022-11-16T21:05:28.241Z,6.97
2022-11-16T21:07:58.743Z,6.57
2022-11-16T21:10:29.937Z,6.65
2022-11-16T21:12:57.709Z,6.95
2022-11-16T21:15:25.085Z,7.00
2022-11-16T21:17:52.800Z,6.38
2022-11-16T21:20:27.492Z,6.82
2022-11-16T21:22:55.840Z,6.72
2022-11-16T21:25:23.261Z,6.65
2022-11-16T21:27:51.013Z,6.53
2022-11-16T21:30:18.484Z,6.47
2022-11-16T21:32:46.158Z,6.15
2022-11-16T21:35:13.596Z,6.57
2022-11-16T21:37:41.270Z,6.05
2022-11-16T21:40:09.206Z,6.80
2022-11-16T21:42:36.917Z,6.43
2022-11-16T21:45:06.391Z,6.07
2022-11-16T21:47:34.169Z,7.07
2022-11-16T21:50:30.716Z,7.18
2022-11-16T21:53:16.300Z,6.30
2022-11-16T21:55:48.664Z,6.20
2022-11-16T21:58:16.372Z,6.85
2022-11-16T22:00:43.826Z,7.60
2022-11-16T22:03:11.574Z,7.00
2022-11-16T22:12:23.307Z,7.82
2022-11-16T22:18:19.748Z,8.60
2022-11-16T22:20:57.139Z,7.20
2022-11-16T22:23:32.852Z,6.80
2022-11-16T22:26:10.604Z,5.68
2022-11-16T22:28:43.375Z,7.10
2022-11-16T22:31:12.416Z,7.47
2022-11-16T22:33:40.402Z,6.68
2022-11-16T22:36:11.687Z,6.57
2022-11-16T22:38:39.107Z,6.20
2022-11-16T22:41:06.827Z,6.70
2022-11-16T22:47:04.939Z,7.90
2022-11-16T22:49:32.392Z,6.88
2022-11-16T22:52:00.044Z,5.80
2022-11-16T22:54:28.785Z,6.18
2022-11-16T22:56:56.887Z,6.03
2022-11-16T22:59:24.360Z,6.93
2022-11-16T23:02:06.577Z,6.20
2022-11-16T23:04:34.470Z,6.40
2022-11-16T23:07:02.350Z,6.90
2022-11-16T23:09:29.833Z,6.55
2022-11-16T23:11:57.438Z,6.38
2022-11-16T23:14:24.776Z,5.75
2022-11-16T23:16:52.150Z,6.38
2022-11-16T23:19:20.442Z,5.97
2022-11-16T23:21:47.811Z,6.95
2022-11-16T23:24:15.442Z,7.63
2022-11-16T23:26:42.873Z,7.32
2022-11-16T23:29:11.383Z,6.90
2022-11-16T23:31:38.802Z,7.25
2022-11-16T23:34:06.460Z,7.68
2022-11-16T23:36:33.911Z,7.72
2022-11-16T23:39:01.577Z,9.10
2022-11-16T23:41:29.039Z,8.35
2022-11-16T23:43:56.696Z,9.15
2022-11-16T23:46:24.970Z,9.32
2022-11-16T23:48:52.655Z,9.35
2022-11-16T23:51:20.349Z,7.40
2022-11-16T23:53:48.063Z,8.13
2022-11-16T23:56:15.425Z,8.98
2022-11-16T23:58:43.126Z,9.32
